VGEG/CGP METAR and TAF weather

Enter ICAO airport designator
Station Type Date Time Source
VGEG METAR 2020/02/25 13:05 UTC NOAA

VGEG 251300 35020KT 2400 HZ SCT016 BKN100 26/19 Q1013 NOSIG


Station Type Date Time Source
VGEG Decoded METAR 2020/02/25 13:05 UTC NOAA

Chittagong Patenga , Bangladesh (VGEG) 22-16N 091-49E 6M
Feb 25, 2020 - 08:05 AM EST / 2020.02.25 1305 UTC
Wind: from the N (350 degrees) at 23 MPH (20 KT):0
Visibility: 1 mile(s):0
Sky conditions: mostly cloudy
Weather: haze
Temperature: 78 F (26 C)
Dew Point: 66 F (19 C)
Relative Humidity: 65%
Pressure (altimeter): 29.91 in. Hg (1013 hPa)
ob: VGEG 251300 35020KT 2400 HZ SCT016 BKN100 26/19 Q1013 NOSIG
cycle: 13

Station Type Date Time Source
VGEG TAF 2020/02/25 06:45 UTC NOAA

TAF TAF VGEG 250500Z 2506/2612 24010KT 4500 NSC
BECMG 2516/2518 00000KT 3100 HZ NSC
BECMG 2521/2523 00000KT 2000 BR SCT012 SCT100
TEMPO 2604/2606 05008KT 1200 RA SCT015 FEW025CB BKN100
BECMG 2606/2608 26010KT 4500 HZ SCT015

Example: see airport list